Terminal Aerodrome Forecast
Issued by NWS

Home | Current Version | Previous Version | Text Only | Print | Product List | Glossary On
Versions: 1 2 3 4 5 6 7 8 9 10 11 12 13 14 15 16
054
FTUS42 KTBW 271927 AAA
TAFPGD
TAF AMD
KPGD 271927Z 2719/2818 26008KT P6SM VCTS SCT045CB BKN150
     FM272200 28006KT P6SM FEW045 SCT250
     FM280100 VRB03KT P6SM FEW030 FEW150
     FM281400 24005KT P6SM SCT025
     FM281700 25007KT P6SM VCTS SCT040CB SCT150=

USA.gov is the U.S. government's official web portal to all federal, state and local government web resources and services.